Time;durP1;ratioP1;P1;durP2;ratioP2;P2;SDS_P1;SDS_P2;PMS_P1;PMS_P2;Temp;Humidity;BMP_temperature;BMP_pressure;BME280_temperature;BME280_humidity;BME280_pressure;Samples;Min_cycle;Max_cycle;Signal;HPM_P1;HPM_P2
2021/03/05 00:00:07;;;;;;;12.30;8.70;;;10.60;96.70;;;;;;5035615;28;20045;-74
2021/03/05 00:02:39;;;;;;;12.98;8.82;;;10.70;96.70;;;;;;5036330;28;20041;-74
2021/03/05 00:05:27;;;;;;;12.85;7.93;;;10.80;96.70;;;;;;5020249;28;20033;-74
2021/03/05 00:07:55;;;;;;;11.38;8.00;;;10.90;96.70;;;;;;5054771;28;20038;-74
2021/03/05 00:10:26;;;;;;;11.93;7.57;;;10.80;96.70;;;;;;5022792;28;20041;-74
2021/03/05 00:12:54;;;;;;;12.93;8.05;;;10.70;96.70;;;;;;5054139;28;20297;-74
2021/03/05 00:15:23;;;;;;;11.93;8.15;;;10.70;96.70;;;;;;5038688;28;20051;-74
2021/03/05 00:17:51;;;;;;;12.13;7.65;;;10.60;96.70;;;;;;5022747;28;20056;-74
2021/03/05 00:20:22;;;;;;;12.77;7.80;;;10.70;96.70;;;;;;5021224;28;20053;-74
2021/03/05 00:22:51;;;;;;;15.35;7.90;;;10.70;96.70;;;;;;5033067;28;20072;-74
2021/03/05 00:25:18;;;;;;;13.25;9.23;;;10.60;96.70;;;;;;5021594;28;20136;-74
2021/03/05 00:27:46;;;;;;;10.52;7.72;;;10.50;96.70;;;;;;5021658;28;20238;-73
2021/03/05 00:30:15;;;;;;;12.20;8.60;;;10.50;96.70;;;;;;5035857;28;20037;-74
2021/03/05 00:32:43;;;;;;;11.23;8.30;;;10.60;96.70;;;;;;5040345;28;20036;-74
2021/03/05 00:35:14;;;;;;;15.75;9.98;;;10.60;96.70;;;;;;5023319;28;20040;-74
2021/03/05 00:37:48;;;;;;;13.98;9.90;;;10.50;96.70;;;;;;5039109;28;20041;-74
2021/03/05 00:40:17;;;;;;;13.00;9.77;;;10.50;96.70;;;;;;5021883;28;20517;-74
2021/03/05 00:42:45;;;;;;;11.57;9.02;;;10.50;96.70;;;;;;5036005;28;20041;-75
2021/03/05 00:45:15;;;;;;;13.90;8.68;;;10.50;96.70;;;;;;5033368;28;20039;-74
2021/03/05 00:47:43;;;;;;;15.27;9.75;;;10.50;96.70;;;;;;5021240;28;20060;-74
2021/03/05 00:50:14;;;;;;;15.23;9.30;;;10.30;96.70;;;;;;5039063;28;20044;-74
2021/03/05 00:52:42;;;;;;;15.88;10.02;;;10.30;96.70;;;;;;5037846;28;20407;-74
2021/03/05 00:55:11;;;;;;;14.50;10.07;;;10.30;96.70;;;;;;5005261;28;20072;-75
2021/03/05 00:57:40;;;;;;;14.25;9.95;;;10.20;96.70;;;;;;5015953;28;20135;-75
2021/03/05 01:00:13;;;;;;;13.15;9.30;;;10.30;96.70;;;;;;5006933;28;20056;-75
2021/03/05 01:02:41;;;;;;;19.30;9.85;;;10.20;96.70;;;;;;5038452;28;20098;-75
2021/03/05 01:05:10;;;;;;;14.75;9.73;;;10.20;96.70;;;;;;5022176;28;20415;-75
2021/03/05 01:07:38;;;;;;;11.80;9.25;;;10.20;96.70;;;;;;5037636;28;20047;-74
2021/03/05 01:10:09;;;;;;;14.32;9.98;;;10.10;96.70;;;;;;5039109;28;20033;-75
2021/03/05 01:12:37;;;;;;;17.08;10.50;;;10.10;96.70;;;;;;5039453;28;20479;-75
2021/03/05 01:15:06;;;;;;;15.27;10.73;;;10.10;96.70;;;;;;5032485;28;20048;-75
2021/03/05 01:17:33;;;;;;;17.65;11.45;;;10.10;96.70;;;;;;5039324;28;20033;-74
2021/03/05 01:20:05;;;;;;;19.13;11.90;;;10.20;96.70;;;;;;5017534;28;20037;-75
2021/03/05 01:22:32;;;;;;;20.17;12.93;;;10.10;96.70;;;;;;5019410;28;20495;-75
2021/03/05 01:25:01;;;;;;;16.02;12.32;;;10.10;96.70;;;;;;5038051;28;20037;-75
2021/03/05 01:27:28;;;;;;;17.02;11.82;;;10.10;96.70;;;;;;5020027;28;20438;-75
2021/03/05 01:29:55;;;;;;;19.95;12.05;;;10.20;96.70;;;;;;5038357;28;20044;-75
2021/03/05 01:32:22;;;;;;;21.73;13.75;;;10.30;96.70;;;;;;5030254;28;20041;-75
2021/03/05 01:34:50;;;;;;;19.38;11.57;;;10.30;96.70;;;;;;5038690;28;20128;-76
2021/03/05 01:37:17;;;;;;;22.88;12.23;;;10.20;96.70;;;;;;5021844;28;20576;-75
2021/03/05 01:39:44;;;;;;;18.35;11.65;;;10.20;96.70;;;;;;5038052;28;20040;-75
2021/03/05 01:42:13;;;;;;;16.83;10.77;;;10.10;96.70;;;;;;5038550;28;20441;-75
2021/03/05 01:44:41;;;;;;;15.38;9.73;;;10.10;96.70;;;;;;5038983;28;20044;-74
2021/03/05 01:47:08;;;;;;;10.68;8.40;;;10.10;96.70;;;;;;5021253;28;20447;-75
2021/03/05 01:49:36;;;;;;;15.77;9.05;;;10.10;96.70;;;;;;5010693;28;20045;-75
2021/03/05 01:52:04;;;;;;;12.45;8.65;;;10.10;96.70;;;;;;5020646;28;20107;-74
2021/03/05 01:54:31;;;;;;;13.23;7.93;;;10.00;96.70;;;;;;5037297;28;20115;-74
2021/03/05 01:56:58;;;;;;;10.48;7.55;;;10.00;96.70;;;;;;5020467;28;20524;-74
2021/03/05 01:59:31;;;;;;;12.27;8.20;;;10.00;96.70;;;;;;5024312;28;20490;-74
2021/03/05 02:01:59;;;;;;;16.17;8.73;;;10.00;96.70;;;;;;5020945;28;20049;-74
2021/03/05 02:04:27;;;;;;;12.13;8.15;;;10.00;96.70;;;;;;5036168;28;20048;-74
2021/03/05 02:07:01;;;;;;;12.40;8.32;;;10.00;96.70;;;;;;5016001;28;20044;-74
2021/03/05 02:09:28;;;;;;;13.02;8.63;;;9.90;96.70;;;;;;5036009;28;20556;-74
2021/03/05 02:11:55;;;;;;;12.45;7.55;;;9.90;96.70;;;;;;5020709;28;20124;-74
2021/03/05 02:14:23;;;;;;;12.68;7.70;;;9.80;96.70;;;;;;5038654;28;20083;-74
2021/03/05 02:17:01;;;;;;;13.55;8.50;;;9.70;96.70;;;;;;5021168;28;20033;-74
2021/03/05 02:20:03;;;;;;;10.50;7.72;;;9.80;96.70;;;;;;5004289;28;20654;-74
2021/03/05 02:22:59;;;;;;;13.43;8.13;;;9.90;96.70;;;;;;5036165;28;20041;-74
2021/03/05 02:25:48;;;;;;;13.60;7.70;;;9.90;96.70;;;;;;5035685;28;20044;-74
2021/03/05 02:28:34;;;;;;;11.15;8.00;;;9.80;96.70;;;;;;5031665;28;20076;-74
2021/03/05 02:31:12;;;;;;;13.60;8.70;;;9.70;96.70;;;;;;5038227;28;20410;-74
2021/03/05 02:33:46;;;;;;;11.07;7.65;;;9.90;96.70;;;;;;5034664;28;20065;-74
2021/03/05 02:36:19;;;;;;;13.18;8.20;;;9.90;96.70;;;;;;5009619;28;20102;-74
2021/03/05 02:39:00;;;;;;;12.57;7.60;;;9.80;96.70;;;;;;5041181;28;20756;-74
2021/03/05 02:41:30;;;;;;;12.45;8.88;;;9.70;96.70;;;;;;5025187;28;20083;-73
2021/03/05 02:43:58;;;;;;;13.73;8.35;;;9.50;96.70;;;;;;5037227;28;20044;-74
2021/03/05 02:46:30;;;;;;;12.45;7.55;;;9.30;96.70;;;;;;5022788;28;20068;-73
2021/03/05 02:49:02;;;;;;;11.95;7.65;;;9.20;96.70;;;;;;5038564;28;20414;-74
2021/03/05 02:51:32;;;;;;;11.82;8.07;;;9.10;96.70;;;;;;5041037;28;20049;-73
2021/03/05 02:54:01;;;;;;;12.23;8.30;;;9.20;96.70;;;;;;5013890;28;20037;-74
2021/03/05 02:56:32;;;;;;;11.68;8.80;;;9.30;96.70;;;;;;5020142;28;20048;-73
2021/03/05 02:59:01;;;;;;;14.02;8.35;;;9.30;96.70;;;;;;5024216;28;20466;-73
2021/03/05 03:01:31;;;;;;;12.93;8.13;;;9.30;96.70;;;;;;5020606;28;20041;-74
2021/03/05 03:04:02;;;;;;;11.30;8.20;;;9.30;96.70;;;;;;5040374;28;20068;-75
2021/03/05 03:06:32;;;;;;;13.50;8.15;;;9.30;96.70;;;;;;5024947;28;20051;-74
2021/03/05 03:09:03;;;;;;;15.00;8.63;;;9.30;96.70;;;;;;5039789;28;20037;-74
2021/03/05 03:11:32;;;;;;;14.85;9.05;;;9.40;96.70;;;;;;5039522;28;20576;-74
2021/03/05 03:14:01;;;;;;;13.68;9.15;;;9.40;96.70;;;;;;5007853;28;20048;-74
2021/03/05 03:16:29;;;;;;;13.30;8.73;;;9.40;96.70;;;;;;5024808;28;20503;-74
2021/03/05 03:18:59;;;;;;;14.63;9.65;;;9.40;96.70;;;;;;5023649;28;20311;-74
2021/03/05 03:21:27;;;;;;;14.38;10.07;;;9.30;96.70;;;;;;5010132;28;20126;-74
2021/03/05 03:23:54;;;;;;;13.80;10.10;;;9.20;96.70;;;;;;5031917;28;20037;-74
2021/03/05 03:26:23;;;;;;;17.27;10.35;;;9.20;96.70;;;;;;5034752;28;20037;-74
2021/03/05 03:28:51;;;;;;;16.10;10.10;;;9.20;96.70;;;;;;5024519;28;20036;-74
2021/03/05 03:31:18;;;;;;;14.38;10.00;;;9.10;96.70;;;;;;5029284;28;21295;-73
2021/03/05 03:33:47;;;;;;;20.95;10.02;;;9.10;96.70;;;;;;5038499;28;20129;-74
2021/03/05 03:36:14;;;;;;;18.42;10.52;;;9.20;96.70;;;;;;5040362;28;20084;-74
2021/03/05 03:38:44;;;;;;;16.15;10.07;;;9.30;96.70;;;;;;5023125;28;20048;-74
2021/03/05 03:41:13;;;;;;;17.80;11.40;;;9.30;96.70;;;;;;5019960;28;20095;-74
2021/03/05 03:43:41;;;;;;;16.92;10.70;;;9.30;96.70;;;;;;5021735;28;20037;-74
2021/03/05 03:46:09;;;;;;;12.65;10.32;;;9.20;96.70;;;;;;5019170;28;20038;-74
2021/03/05 03:48:43;;;;;;;16.85;10.30;;;9.20;96.70;;;;;;5019352;28;20039;-74
2021/03/05 03:51:17;;;;;;;14.20;9.35;;;9.20;96.70;;;;;;5022082;28;20037;-74
2021/03/05 03:53:46;;;;;;;15.80;10.63;;;9.30;96.70;;;;;;5033625;28;20351;-74
2021/03/05 03:56:14;;;;;;;13.73;10.10;;;9.30;96.70;;;;;;5036324;28;20580;-74
2021/03/05 03:58:45;;;;;;;16.88;9.80;;;9.20;96.70;;;;;;5023976;28;20041;-74
2021/03/05 04:01:14;;;;;;;16.45;10.63;;;9.20;96.70;;;;;;5023061;28;20313;-74
2021/03/05 04:03:48;;;;;;;14.73;10.40;;;9.30;96.70;;;;;;5013420;28;20037;-74
2021/03/05 04:06:20;;;;;;;14.77;10.13;;;9.20;96.70;;;;;;5004964;28;20107;-74
2021/03/05 04:08:49;;;;;;;16.90;11.40;;;9.00;96.70;;;;;;5037451;28;20574;-74
2021/03/05 04:11:17;;;;;;;16.83;11.43;;;9.10;96.70;;;;;;5042157;28;21434;-74
2021/03/05 04:13:45;;;;;;;19.52;10.85;;;9.10;96.70;;;;;;5018873;28;20052;-74
2021/03/05 04:16:12;;;;;;;15.00;11.27;;;9.10;96.70;;;;;;5021883;28;20125;-74
2021/03/05 04:18:41;;;;;;;14.90;10.57;;;9.30;96.70;;;;;;5041684;28;20051;-74
2021/03/05 04:21:16;;;;;;;17.48;10.90;;;9.20;96.70;;;;;;5026176;28;20045;-74
2021/03/05 04:23:44;;;;;;;15.68;10.65;;;9.20;96.70;;;;;;5038062;28;20045;-74
2021/03/05 04:26:11;;;;;;;16.50;10.65;;;9.20;96.70;;;;;;5017616;28;20809;-74
2021/03/05 04:28:38;;;;;;;15.90;11.02;;;9.20;96.70;;;;;;5034671;28;20037;-74
2021/03/05 04:31:05;;;;;;;15.75;10.32;;;9.20;96.70;;;;;;5035283;28;20495;-74
2021/03/05 04:33:33;;;;;;;13.85;10.40;;;9.30;96.70;;;;;;5040928;28;20438;-74
2021/03/05 04:36:00;;;;;;;16.08;10.50;;;9.30;96.70;;;;;;5035761;28;20063;-74
2021/03/05 04:38:27;;;;;;;19.45;10.40;;;9.30;96.70;;;;;;5016717;28;20099;-74
2021/03/05 04:40:55;;;;;;;14.45;10.18;;;9.30;96.70;;;;;;5024129;28;20053;-74
2021/03/05 04:43:22;;;;;;;13.40;11.18;;;9.40;96.70;;;;;;5019211;28;20106;-73
2021/03/05 04:45:49;;;;;;;15.35;10.95;;;9.30;96.70;;;;;;5040193;28;20033;-74
2021/03/05 04:48:19;;;;;;;12.02;9.13;;;9.30;96.70;;;;;;5020964;28;20502;-74
2021/03/05 04:50:46;;;;;;;13.45;9.98;;;9.40;96.70;;;;;;5033678;28;20540;-74
2021/03/05 04:53:15;;;;;;;14.88;11.25;;;9.20;96.70;;;;;;5005245;28;20045;-74
2021/03/05 04:55:43;;;;;;;17.02;10.75;;;9.10;96.70;;;;;;5021512;28;20037;-74
2021/03/05 04:58:11;;;;;;;16.08;11.70;;;9.10;96.70;;;;;;5022576;28;20064;-74
2021/03/05 05:00:38;;;;;;;16.45;11.02;;;9.10;96.70;;;;;;5022092;28;20471;-74
2021/03/05 05:03:06;;;;;;;16.58;11.05;;;9.00;96.70;;;;;;5039804;28;20519;-74
2021/03/05 05:05:34;;;;;;;17.17;11.68;;;9.10;96.70;;;;;;5020194;28;20134;-74
2021/03/05 05:08:01;;;;;;;15.85;11.38;;;9.20;96.70;;;;;;5017751;28;20049;-74
2021/03/05 05:10:29;;;;;;;18.20;11.77;;;9.20;96.70;;;;;;5009717;28;20045;-74
2021/03/05 05:12:57;;;;;;;15.50;10.98;;;9.20;96.70;;;;;;5009428;28;20192;-74
2021/03/05 05:15:25;;;;;;;17.23;10.75;;;9.10;96.70;;;;;;5015627;28;20083;-74
2021/03/05 05:17:53;;;;;;;14.35;11.68;;;9.10;96.70;;;;;;5030856;28;20033;-73
2021/03/05 05:20:21;;;;;;;16.77;10.85;;;9.20;96.70;;;;;;5015857;28;20162;-74
2021/03/05 05:22:48;;;;;;;16.98;10.15;;;9.10;96.70;;;;;;5021300;28;20044;-74
2021/03/05 05:25:16;;;;;;;13.82;9.85;;;9.10;96.70;;;;;;5020980;28;20096;-74
2021/03/05 05:27:44;;;;;;;17.75;11.52;;;9.10;96.70;;;;;;5013817;28;20045;-74
2021/03/05 05:30:12;;;;;;;19.77;11.45;;;9.00;96.70;;;;;;5020241;28;20504;-74
2021/03/05 05:32:40;;;;;;;15.93;10.20;;;9.00;96.70;;;;;;5022554;28;20155;-74
2021/03/05 05:35:08;;;;;;;14.10;10.45;;;9.00;96.70;;;;;;5020743;28;20041;-74
2021/03/05 05:37:36;;;;;;;17.55;10.70;;;9.00;96.70;;;;;;5005491;28;20037;-74
2021/03/05 05:40:04;;;;;;;15.25;11.27;;;9.00;96.70;;;;;;5037828;28;20095;-74
2021/03/05 05:42:31;;;;;;;16.15;11.13;;;9.00;96.70;;;;;;5020019;28;20389;-74
2021/03/05 05:44:59;;;;;;;15.00;11.23;;;8.90;96.70;;;;;;5004179;28;20043;-74
2021/03/05 05:47:29;;;;;;;16.90;11.25;;;9.00;96.70;;;;;;5007071;28;20049;-74
2021/03/05 05:50:03;;;;;;;15.30;10.73;;;9.10;96.70;;;;;;5014797;28;20045;-74
2021/03/05 05:52:32;;;;;;;19.25;11.35;;;9.10;96.70;;;;;;5040145;28;20119;-74
2021/03/05 05:55:05;;;;;;;14.82;11.50;;;9.00;96.70;;;;;;5004829;28;20173;-74
2021/03/05 05:57:36;;;;;;;16.35;11.65;;;9.00;96.70;;;;;;5034357;28;20057;-74
2021/03/05 06:00:08;;;;;;;18.80;10.93;;;9.10;96.70;;;;;;5033899;28;20049;-74
2021/03/05 06:02:36;;;;;;;17.30;11.05;;;9.10;96.70;;;;;;5044445;28;20053;-74
2021/03/05 06:05:07;;;;;;;15.88;11.57;;;9.10;96.70;;;;;;5007363;28;20442;-74
2021/03/05 06:07:36;;;;;;;15.50;11.80;;;9.00;96.70;;;;;;5039738;28;20037;-74
2021/03/05 06:10:07;;;;;;;16.20;10.57;;;9.00;96.70;;;;;;5026190;28;20120;-74
2021/03/05 06:12:35;;;;;;;14.45;11.27;;;9.10;96.70;;;;;;5043892;28;20091;-74
2021/03/05 06:15:03;;;;;;;15.40;11.00;;;9.00;96.70;;;;;;5042132;28;20048;-74
2021/03/05 06:17:41;;;;;;;16.70;11.02;;;9.10;96.70;;;;;;5024375;28;20084;-74
2021/03/05 06:20:11;;;;;;;16.05;11.25;;;9.20;96.70;;;;;;5002299;28;20045;-74
2021/03/05 06:22:39;;;;;;;18.83;11.95;;;9.20;96.70;;;;;;5010093;28;20127;-74
2021/03/05 06:25:08;;;;;;;18.08;11.93;;;9.20;96.70;;;;;;5015413;28;20037;-74
2021/03/05 06:27:37;;;;;;;20.80;12.23;;;9.20;96.70;;;;;;5023870;28;20045;-74
2021/03/05 06:30:07;;;;;;;17.35;12.90;;;9.30;96.70;;;;;;5042332;28;20053;-74
2021/03/05 06:32:39;;;;;;;17.90;11.52;;;9.30;96.70;;;;;;5038143;28;20123;-74
2021/03/05 06:35:08;;;;;;;18.77;12.80;;;9.20;96.70;;;;;;5040013;28;20609;-74
2021/03/05 06:37:46;;;;;;;22.95;13.23;;;9.30;96.70;;;;;;5020285;28;20054;-74
2021/03/05 06:40:30;;;;;;;20.15;13.45;;;9.30;96.70;;;;;;5024723;28;20041;-74
2021/03/05 06:42:58;;;;;;;18.55;13.35;;;9.60;96.70;;;;;;5034596;28;20402;-74
2021/03/05 06:45:35;;;;;;;15.23;12.73;;;9.60;96.70;;;;;;5025047;28;20735;-74
2021/03/05 06:48:04;;;;;;;16.73;13.75;;;9.50;96.70;;;;;;5026489;28;20045;-74
2021/03/05 06:50:33;;;;;;;20.95;13.65;;;9.60;96.70;;;;;;5029201;28;20542;-74
2021/03/05 06:53:19;;;;;;;21.58;13.82;;;9.60;96.70;;;;;;5038451;28;20530;-74
2021/03/05 06:55:47;;;;;;;19.15;14.43;;;9.60;96.70;;;;;;5034494;28;20041;-74
2021/03/05 06:58:14;;;;;;;18.20;12.93;;;9.60;96.70;;;;;;5023658;28;20159;-74
2021/03/05 07:00:42;;;;;;;19.60;13.35;;;9.70;96.70;;;;;;5020774;28;20053;-74
2021/03/05 07:03:24;;;;;;;16.70;12.35;;;9.80;96.70;;;;;;5033933;28;20128;-74
2021/03/05 07:05:54;;;;;;;20.48;12.98;;;9.80;96.70;;;;;;5038523;28;20052;-74
2021/03/05 07:08:38;;;;;;;19.63;12.82;;;9.90;96.70;;;;;;5013989;28;20785;-74
2021/03/05 07:11:07;;;;;;;18.90;12.63;;;9.90;96.70;;;;;;5018412;28;20041;-74
2021/03/05 07:13:48;;;;;;;18.50;12.25;;;10.00;96.70;;;;;;5039908;28;20604;-74
2021/03/05 07:16:15;;;;;;;18.40;12.50;;;10.10;96.70;;;;;;5018103;28;20439;-74
2021/03/05 07:18:44;;;;;;;15.93;11.60;;;10.20;96.70;;;;;;5039999;28;20216;-74
2021/03/05 07:21:17;;;;;;;17.27;12.05;;;10.20;96.70;;;;;;5006761;28;20045;-74
2021/03/05 07:23:48;;;;;;;15.45;11.65;;;10.20;96.70;;;;;;5022581;28;20045;-74
2021/03/05 07:26:17;;;;;;;18.50;12.13;;;10.30;96.70;;;;;;5034799;28;20317;-74
2021/03/05 07:28:47;;;;;;;18.80;12.25;;;10.40;96.70;;;;;;5033479;28;20384;-74
2021/03/05 07:31:16;;;;;;;17.98;11.20;;;10.40;96.70;;;;;;5015553;28;20583;-74
2021/03/05 07:33:50;;;;;;;17.63;11.27;;;10.40;96.70;;;;;;5030944;28;20037;-74
2021/03/05 07:36:18;;;;;;;18.73;11.38;;;10.40;96.70;;;;;;5041591;28;20096;-74
2021/03/05 07:38:51;;;;;;;15.05;11.63;;;10.50;96.70;;;;;;5002637;28;20474;-74
2021/03/05 07:41:21;;;;;;;18.90;10.98;;;10.50;96.70;;;;;;5040264;28;21049;-74
2021/03/05 07:43:50;;;;;;;15.20;11.13;;;10.60;96.70;;;;;;5040258;28;20044;-74
2021/03/05 07:46:18;;;;;;;16.92;11.43;;;10.70;96.70;;;;;;5037146;28;20107;-74
2021/03/05 07:48:47;;;;;;;18.92;12.82;;;10.70;96.70;;;;;;5021862;28;20044;-74
2021/03/05 07:51:16;;;;;;;17.77;12.98;;;10.80;96.70;;;;;;5037760;28;20049;-74
2021/03/05 07:53:54;;;;;;;15.98;10.95;;;10.70;96.70;;;;;;5032630;28;20064;-74
2021/03/05 07:56:38;;;;;;;17.85;11.15;;;10.80;96.70;;;;;;5034341;28;20515;-74
2021/03/05 07:59:06;;;;;;;19.35;12.20;;;10.90;96.70;;;;;;5003646;28;20072;-74
2021/03/05 08:01:56;;;;;;;16.27;11.35;;;10.90;96.70;;;;;;5000048;28;20033;-74
2021/03/05 08:04:57;;;;;;;14.50;9.90;;;10.90;96.70;;;;;;5001899;28;20929;-74
2021/03/05 08:07:26;;;;;;;15.70;11.10;;;10.90;96.70;;;;;;5002438;28;20137;-74
2021/03/05 08:09:56;;;;;;;17.42;11.25;;;10.80;96.70;;;;;;5002597;28;20080;-74
2021/03/05 08:12:42;;;;;;;13.43;9.93;;;10.90;96.70;;;;;;5000242;28;20087;-75
2021/03/05 08:15:25;;;;;;;15.85;10.80;;;11.00;96.70;;;;;;5018788;28;20104;-73
2021/03/05 08:17:54;;;;;;;18.00;10.25;;;11.10;96.70;;;;;;5013406;28;20403;-73
2021/03/05 08:20:45;;;;;;;15.65;9.95;;;11.20;96.70;;;;;;5003218;28;20045;-75
2021/03/05 08:23:15;;;;;;;16.85;9.82;;;11.30;96.70;;;;;;4997166;28;20042;-74
2021/03/05 08:25:56;;;;;;;16.85;10.68;;;11.40;96.70;;;;;;5012315;28;20060;-74
2021/03/05 08:28:42;;;;;;;14.52;10.43;;;11.40;96.70;;;;;;4993170;28;20041;-74
2021/03/05 08:31:32;;;;;;;16.33;9.95;;;11.60;96.70;;;;;;5022105;28;20034;-73
2021/03/05 08:34:29;;;;;;;20.75;11.15;;;11.60;96.70;;;;;;4982042;28;20203;-73
2021/03/05 08:36:58;;;;;;;18.63;10.95;;;11.70;96.70;;;;;;5007139;28;20742;-74
2021/03/05 08:39:28;;;;;;;14.50;10.43;;;11.80;96.70;;;;;;4999737;28;20515;-74
2021/03/05 08:42:25;;;;;;;16.25;10.80;;;11.80;96.70;;;;;;4994119;28;20140;-74
2021/03/05 08:45:09;;;;;;;17.50;10.73;;;11.90;96.70;;;;;;4993319;28;20048;-74
2021/03/05 08:47:38;;;;;;;17.08;10.75;;;12.00;96.70;;;;;;5015731;28;20456;-74
2021/03/05 08:50:07;;;;;;;22.13;12.95;;;12.00;96.70;;;;;;5002751;28;20068;-75
2021/03/05 08:52:35;;;;;;;17.45;12.25;;;12.10;96.70;;;;;;5015580;28;20047;-75
2021/03/05 08:55:05;;;;;;;18.45;12.65;;;12.10;96.70;;;;;;4999492;28;20357;-73
2021/03/05 08:57:41;;;;;;;20.23;12.85;;;12.20;96.70;;;;;;4994603;28;20049;-72
2021/03/05 09:00:14;;;;;;;18.08;12.48;;;12.40;96.70;;;;;;5008831;28;20133;-73
2021/03/05 09:02:43;;;;;;;19.02;13.32;;;12.40;96.70;;;;;;5017769;28;20148;-74
2021/03/05 09:05:13;;;;;;;18.23;12.93;;;12.40;96.70;;;;;;5011999;28;20042;-75
2021/03/05 09:07:50;;;;;;;23.05;13.55;;;12.40;96.70;;;;;;5015620;28;20130;-74
2021/03/05 09:10:18;;;;;;;18.50;14.05;;;12.50;96.70;;;;;;5013246;28;20605;-73
2021/03/05 09:12:54;;;;;;;20.30;13.88;;;12.60;96.70;;;;;;4993601;28;20038;-73
2021/03/05 09:15:27;;;;;;;20.27;13.65;;;12.70;96.70;;;;;;4978177;28;20046;-73
2021/03/05 09:17:57;;;;;;;20.02;13.02;;;12.70;96.70;;;;;;4984382;28;20050;-73
2021/03/05 09:20:35;;;;;;;19.95;14.13;;;12.80;96.70;;;;;;5000631;28;20041;-76
2021/03/05 09:23:19;;;;;;;24.77;15.50;;;12.90;96.70;;;;;;5018087;28;20077;-73
2021/03/05 09:25:48;;;;;;;24.42;16.15;;;13.00;96.70;;;;;;5016059;28;20037;-74
2021/03/05 09:28:15;;;;;;;25.05;15.98;;;13.10;96.70;;;;;;5021369;28;20049;-75
2021/03/05 09:30:48;;;;;;;22.35;15.10;;;13.30;96.70;;;;;;5004130;28;20512;-74
2021/03/05 09:33:16;;;;;;;46.15;31.30;;;13.30;96.70;;;;;;5023210;28;20467;-74
2021/03/05 09:35:44;;;;;;;30.23;17.33;;;13.30;96.70;;;;;;5018716;28;20042;-74
2021/03/05 09:38:18;;;;;;;21.75;15.52;;;13.40;96.70;;;;;;5007598;28;20524;-74
2021/03/05 09:40:46;;;;;;;24.58;14.32;;;13.40;96.70;;;;;;5022286;28;20132;-74
2021/03/05 09:43:16;;;;;;;26.95;14.43;;;13.30;96.70;;;;;;4993686;28;20109;-74
2021/03/05 09:45:49;;;;;;;21.50;12.82;;;13.50;96.70;;;;;;5018626;28;20040;-73
2021/03/05 09:48:32;;;;;;;19.50;13.65;;;13.60;96.70;;;;;;5025963;28;20111;-73
2021/03/05 09:51:04;;;;;;;20.52;12.95;;;13.60;96.70;;;;;;4988207;28;20050;-73
2021/03/05 09:53:34;;;;;;;17.75;11.73;;;13.70;96.70;;;;;;5003206;28;20053;-78
2021/03/05 09:56:03;;;;;;;15.60;10.38;;;13.70;96.70;;;;;;5002516;28;20042;-74
2021/03/05 09:58:30;;;;;;;19.67;11.60;;;13.80;96.70;;;;;;5020522;28;20090;-73
2021/03/05 10:00:59;;;;;;;18.83;11.32;;;14.00;96.70;;;;;;5040660;28;20041;-73
2021/03/05 10:03:28;;;;;;;17.77;11.20;;;14.00;96.70;;;;;;5042430;28;20566;-73
2021/03/05 10:05:56;;;;;;;16.02;10.27;;;14.10;96.70;;;;;;5039686;28;20091;-74
2021/03/05 10:08:26;;;;;;;18.85;11.68;;;14.10;96.70;;;;;;5023424;28;20080;-74
2021/03/05 10:10:59;;;;;;;16.58;11.27;;;14.30;96.70;;;;;;5024482;28;20077;-73
2021/03/05 10:13:44;;;;;;;16.35;10.38;;;14.30;96.70;;;;;;5019525;28;20044;-73
2021/03/05 10:16:15;;;;;;;16.63;10.43;;;14.50;96.70;;;;;;5022032;28;20136;-74
2021/03/05 10:18:44;;;;;;;17.70;11.45;;;14.70;96.70;;;;;;5025068;28;20041;-74
2021/03/05 10:21:12;;;;;;;16.25;11.43;;;14.70;96.70;;;;;;5037576;28;20047;-73
2021/03/05 10:23:41;;;;;;;17.63;10.93;;;14.70;96.70;;;;;;5039605;28;20495;-74
2021/03/05 10:26:13;;;;;;;17.42;10.13;;;14.70;96.70;;;;;;5037584;28;20132;-73
2021/03/05 10:28:40;;;;;;;13.25;9.88;;;14.80;96.70;;;;;;5028636;28;20187;-75
2021/03/05 10:31:08;;;;;;;27.75;19.98;;;14.90;96.70;;;;;;5025622;28;20597;-78
2021/03/05 10:33:38;;;;;;;18.13;12.05;;;15.10;96.70;;;;;;5037930;28;20041;-75
2021/03/05 10:36:07;;;;;;;15.07;9.05;;;15.20;96.70;;;;;;5025761;28;20150;-76
2021/03/05 10:38:35;;;;;;;11.50;8.63;;;15.10;96.70;;;;;;5020475;28;20033;-75
2021/03/05 10:41:03;;;;;;;15.73;9.85;;;15.20;96.50;;;;;;5039368;28;20675;-74
2021/03/05 10:43:36;;;;;;;15.38;11.05;;;15.20;96.20;;;;;;5023025;28;20573;-75
2021/03/05 10:46:04;;;;;;;17.17;9.70;;;15.30;96.70;;;;;;5041920;28;20029;-78
2021/03/05 10:48:32;;;;;;;12.73;8.98;;;15.50;96.70;;;;;;5024589;28;20694;-78
2021/03/05 10:51:00;;;;;;;11.38;8.68;;;15.60;94.70;;;;;;5040313;28;20041;-77
2021/03/05 10:53:28;;;;;;;14.95;8.75;;;15.60;94.50;;;;;;5022318;28;20041;-74
2021/03/05 10:55:56;;;;;;;12.40;7.57;;;15.70;94.00;;;;;;5043083;28;20096;-78
2021/03/05 10:58:24;;;;;;;15.38;6.90;;;15.70;92.40;;;;;;5021761;28;20056;-77
2021/03/05 11:00:51;;;;;;;10.00;6.00;;;15.80;91.70;;;;;;5007250;28;20699;-77
2021/03/05 11:03:21;;;;;;;10.57;6.20;;;16.00;90.70;;;;;;5020343;28;20052;-77
2021/03/05 11:05:48;;;;;;;11.32;6.93;;;16.10;90.00;;;;;;5021681;28;20069;-78
2021/03/05 11:08:19;;;;;;;13.70;7.80;;;16.30;90.10;;;;;;5020254;28;20569;-76
2021/03/05 11:10:47;;;;;;;10.52;6.65;;;16.40;89.20;;;;;;5020810;28;20240;-77
2021/03/05 11:13:15;;;;;;;8.05;5.85;;;16.50;88.90;;;;;;5020055;28;20037;-77
2021/03/05 11:15:43;;;;;;;10.48;6.10;;;16.40;85.50;;;;;;5019728;28;20045;-76
2021/03/05 11:18:11;;;;;;;10.00;5.88;;;16.40;83.80;;;;;;5039216;28;20508;-75
2021/03/05 11:20:38;;;;;;;8.43;5.85;;;16.40;85.50;;;;;;5008124;28;20042;-75
2021/03/05 11:23:05;;;;;;;10.80;5.80;;;16.50;82.40;;;;;;5023408;28;20045;-75
2021/03/05 11:25:34;;;;;;;59.28;41.13;;;16.70;83.10;;;;;;5017340;28;20102;-73
2021/03/05 11:28:05;;;;;;;12.07;9.57;;;17.00;83.80;;;;;;5007635;28;20041;-71
2021/03/05 11:30:36;;;;;;;9.27;6.18;;;17.10;82.60;;;;;;5021001;28;20036;-71
2021/03/05 11:33:04;;;;;;;9.27;6.07;;;17.10;80.30;;;;;;5040459;28;20576;-71
2021/03/05 11:35:32;;;;;;;10.00;5.72;;;16.90;79.40;;;;;;5026346;28;20107;-72
2021/03/05 11:38:00;;;;;;;8.98;5.82;;;16.90;78.90;;;;;;5020144;28;20151;-71
2021/03/05 11:40:28;;;;;;;11.27;5.90;;;17.10;79.90;;;;;;5029261;28;20040;-71
2021/03/05 11:42:56;;;;;;;9.55;5.45;;;17.20;80.80;;;;;;5021346;28;20094;-72
2021/03/05 11:45:24;;;;;;;9.95;6.22;;;17.20;79.90;;;;;;5038731;28;20042;-72
2021/03/05 11:47:52;;;;;;;10.55;4.95;;;17.30;80.00;;;;;;5038960;28;20118;-73
2021/03/05 11:50:20;;;;;;;14.07;5.80;;;17.30;79.90;;;;;;5037698;28;20033;-73
2021/03/05 11:52:47;;;;;;;13.00;5.68;;;17.20;81.50;;;;;;5035389;28;20046;-73
2021/03/05 11:55:15;;;;;;;11.43;5.70;;;17.10;80.50;;;;;;5018983;28;20136;-73
2021/03/05 11:57:42;;;;;;;8.88;4.93;;;16.90;79.30;;;;;;5022795;28;20045;-72
2021/03/05 12:00:11;;;;;;;8.00;4.80;;;16.60;78.80;;;;;;5040165;28;20037;-73
2021/03/05 12:02:39;;;;;;;7.70;4.75;;;16.30;79.70;;;;;;5020667;28;20830;-72
2021/03/05 12:05:07;;;;;;;8.32;4.93;;;16.20;78.80;;;;;;5022019;28;20131;-73
2021/03/05 12:07:35;;;;;;;13.90;5.53;;;16.20;78.90;;;;;;5035998;28;20455;-72
2021/03/05 12:10:04;;;;;;;13.05;4.90;;;16.40;79.30;;;;;;5017849;28;20502;-72
2021/03/05 12:12:31;;;;;;;8.32;5.00;;;16.50;78.80;;;;;;5027646;28;20486;-72
2021/03/05 12:14:59;;;;;;;8.63;4.32;;;16.50;78.60;;;;;;5037915;28;20072;-73
2021/03/05 12:17:28;;;;;;;10.52;4.70;;;16.70;78.50;;;;;;5037672;28;20045;-72
2021/03/05 12:19:56;;;;;;;7.40;4.53;;;16.60;77.90;;;;;;5039892;28;20038;-72
2021/03/05 12:22:24;;;;;;;8.05;4.50;;;16.60;79.60;;;;;;5014617;28;20049;-73
2021/03/05 12:24:51;;;;;;;6.13;3.75;;;16.50;80.10;;;;;;5005810;28;20052;-73
2021/03/05 12:27:19;;;;;;;11.25;4.68;;;16.50;79.40;;;;;;5036112;28;20159;-73
2021/03/05 12:29:46;;;;;;;7.40;4.40;;;16.40;78.90;;;;;;5005194;28;20402;-73
2021/03/05 12:32:14;;;;;;;9.63;4.93;;;16.30;79.40;;;;;;5005087;28;20053;-73
2021/03/05 12:34:42;;;;;;;10.05;4.47;;;16.30;80.20;;;;;;5037224;28;20704;-75
2021/03/05 12:37:11;;;;;;;8.32;4.50;;;16.30;79.40;;;;;;5023222;28;20033;-74
2021/03/05 12:39:39;;;;;;;9.70;4.40;;;16.30;79.80;;;;;;5039120;28;20136;-75
2021/03/05 12:42:07;;;;;;;8.48;4.22;;;16.30;79.50;;;;;;5024954;28;20037;-75
2021/03/05 12:44:35;;;;;;;6.78;3.97;;;16.30;77.50;;;;;;5020269;28;20163;-75
2021/03/05 12:47:03;;;;;;;7.72;4.40;;;16.30;78.10;;;;;;5032872;28;20056;-75
2021/03/05 12:49:32;;;;;;;8.30;4.80;;;16.50;78.40;;;;;;5018536;28;20055;-76
2021/03/05 12:52:01;;;;;;;10.02;4.90;;;16.70;77.80;;;;;;5037890;28;20036;-75